Lower Well, Arizona (CPNWR) Weather observations

Data are for 10 minute period ending at time listed.
 Day   Time     Ave.   Ave.  Ave.  Vector  Max.   Total    
  of    of      Air    Rel.  Wind   Wind   Wind  Precip.   
Year   Day      Temp.  Hum.  Speed  Dir.   Gust            
2024    (MST)    F      %     mph   deg.    mph    in.     
-----------------------------------------------------------
 150   12:30    94.0     9    7.6   263    13.1    0.00 
 150   12:35    94.4     9    8.7   263    12.7    0.00 
 150   12:40    94.3     8    7.0   246    11.8    0.00 
 150   12:45    94.9     8    4.2   275     9.5    0.00 
 150   12:50    95.3     8    6.8   241    13.3    0.00 
 150   12:55    95.3     8    6.2   246    10.2    0.00 
 150   13:00    95.7     8    5.7   229    11.2    0.00 
 150   13:05    95.7     8    6.2   218    10.2    0.00 
 150   13:10    95.7     8    6.7   241    12.4    0.00 
 150   13:15    96.0     7    7.0   218    14.3    0.00 
 150   13:20    96.3     8    4.6   261    10.0    0.00 
 150   13:25    96.9     7    7.6   221    13.0    0.00 
 150   13:30    96.2     8    8.0   236    12.7    0.00 
 150   13:35    96.2     7    6.3   246    11.4    0.00 
 150   13:40    96.2     7    6.6   214    10.6    0.00 
 150   13:45    95.7     7    8.0   231    13.6    0.00 
 150   13:50    96.1     7    7.1   256    12.8    0.00 
 150   13:55    95.9     7    4.7   275     7.5    0.00 
 150   14:00    96.1     7    6.5   284    11.8    0.00 
 150   14:05    95.6     7    5.5   218    11.0    0.00 
 150   14:10    97.1     6    8.3   194    13.6    0.00 
 150   14:15    97.3     6    5.0   249     9.2    0.00 
 150   14:20    96.3     6    5.1   205    12.6    0.00 
 150   14:25    97.2     6    7.9   214    12.7    0.00 
 150   14:30    97.3     6    7.7   210    12.7    0.00 
 150   14:35    96.9     6    6.0   185    11.0    0.00 
 150   14:40    97.1     6    5.5   180    16.7    0.00 
 150   14:45    97.3     6    5.8   253    14.1    0.00 
 150   14:50    97.1     6    4.4   282    10.1    0.00 
 150   14:55    97.3     6    6.8   264    11.3    0.00 
 150   15:00    96.8     6    6.8   262    12.1    0.00 
 150   15:05    97.0     6    5.0   214     9.7    0.00 
 150   15:10    98.2     6    6.5   215    11.8    0.00 
 150   15:15    97.9     5    6.8   213    10.9    0.00 
 150   15:20    98.2     5    5.8   199    12.6    0.00 
 150   15:25    98.3     5    7.4   206    13.7    0.00 
 150   15:30    97.5     6    4.5   256    10.0    0.00 
 150   15:35    97.7     6    6.4   270    12.8    0.00 
 150   15:40    97.5     6    6.8   232    14.0    0.00 
 150   15:45    97.7     6    5.4   277    10.2    0.00 
 150   15:50    97.9     6    5.2   275     8.4    0.00 
 150   15:55    97.6     6    6.1   211    11.7    0.00 
 150   16:00    97.9     6    8.3   230    13.2    0.00 
 150   16:05    97.5     6    7.8   238    12.7    0.00 
 150   16:10    97.2     6    6.5   238    13.1    0.00 
 150   16:15    97.3     6    6.3   248    12.4    0.00 
 150   16:20    97.1     6    8.7   217    14.3    0.00 
 150   16:25    96.8     6    4.8   193    10.7    0.00 
 150   16:30    96.4     6    6.3   156    11.3    0.00 
 150   16:35    96.8     6    8.3   184    14.5    0.00 
 150   16:40    96.4     6    9.0   181    12.9    0.00 
 150   16:45    96.9     6    6.6   198     9.5    0.00 
 150   16:50    97.7     6    6.4   202    11.2    0.00 
 150   16:55    97.5     6    6.9   240    11.4    0.00 
 150   17:00    97.2     6    7.4   222    11.7    0.00 
 150   17:05    96.9     6    7.7   183    12.1    0.00 
 150   17:10    96.6     6    8.8   196    14.3    0.00 
 150   17:15    96.4     6    8.2   216    13.6    0.00 
 150   17:20    96.3     6    7.0   206    14.2    0.00 
 150   17:25    95.8     6    8.4   197    15.8    0.00 
 150   17:30    95.9     5    7.9   216    12.8    0.00 
 150   17:35    95.8     5    7.6   214    12.8    0.00 
 150   17:40    95.7     5    8.1   216    12.4    0.00 
 150   17:45    95.7     5    6.7   218    10.2    0.00 
 150   17:50    95.5     5    5.0   211     8.8    0.00 
 150   17:55    95.5     5    7.1   214    12.6    0.00 
 150   18:00    95.4     5    7.8   212    11.2    0.00 
 150   18:05    95.1     5    7.2   217     9.8    0.00 
 150   18:10    94.6     5    7.9   207    11.3    0.00 
 150   18:15    94.4     5    6.9   217    11.0    0.00 
 150   18:20    94.5     5    5.8   218     9.4    0.00 
 150   18:25    94.5     5    6.7   209    11.5    0.00 
 150   18:30    94.0     5    6.5   213    10.1    0.00 
 150   18:35    93.8     5    5.9   212     9.6    0.00 
 150   18:40    93.8     4    6.0   207     9.3    0.00 
 150   18:45    93.1     4    6.2   201    10.0    0.00 
 150   18:50    93.1     4    5.8   216     9.8    0.00 
 150   18:55    92.6     4    7.1   204    11.3    0.00 
 150   19:00    92.0     4    6.5   201    11.2    0.00 
 150   19:05    91.2     4    5.3   198     8.7    0.00 
 150   19:10    90.9     4    7.4   207    11.6    0.00 
 150   19:15    90.6     4    7.5   201    10.9    0.00 
 150   19:20    90.3     4    6.7   206    10.3    0.00 
 150   19:25    90.1     4    6.8   202    10.1    0.00 
 150   19:30    89.9     4    6.0   213    11.9    0.00 
 150   19:35    89.6     4    5.5   201     8.1    0.00 
 150   19:40    89.4     3    6.1   210     9.8    0.00 
 150   19:45    89.1     3    4.7   194     7.0    0.00 
 150   19:50    88.8     3    5.3   204     8.6    0.00 
 150   19:55    88.7     3    4.3   204     7.5    0.00 
 150   20:00    88.4     3    4.5   200     6.5    0.00 
 150   20:05    88.2     3    5.0   195     8.6    0.00 
 150   20:10    88.2     3    5.5   202     9.1    0.00 
 150   20:15    88.2     3    5.0   203     7.8    0.00 
 150   20:20    88.0     4    5.6   202     7.8    0.00 
 150   20:25    87.9     4    6.3   197    10.5    0.00 
 150   20:30    87.6     4    5.3   201     8.3    0.00 
 150   20:35    87.6     4    5.3   203     8.4    0.00 
 150   20:40    87.2     4    5.6   199    10.9    0.00 
 150   20:45    87.2     4    5.8   204     8.3    0.00 
 150   20:50    87.0     5    5.2   201     8.3    0.00 
 150   20:55    86.8     5    5.1   205     8.2    0.00 
 150   21:00    86.5     5    5.1   212     9.9    0.00 
 150   21:05    86.3     6    5.2   208     8.4    0.00 
 150   21:10    86.1     6    5.2   211     7.4    0.00 
 150   21:15    86.1     5    5.1   211     7.7    0.00 
 150   21:20    85.8     6    4.3   235     8.6    0.00 
 150   21:25    84.7     6    3.6   238     6.8    0.00 
 150   21:30    84.5     5    4.4   225     6.3    0.00 
 150   21:35    84.7     5    4.5   224     6.8    0.00 
 150   21:40    85.1     6    4.1   237     7.8    0.00 
 150   21:45    85.3     7    5.1   237     8.8    0.00 
 150   21:50    84.7     8    3.2   218     4.5    0.00 
 150   21:55    83.8     7    2.9   226     4.3    0.00 
 150   22:00    83.3     6    2.8   220     4.1    0.00 
 150   22:05    83.1     5    2.5   214     3.4    0.00 
 150   22:10    82.8     5    2.2   203     3.3    0.00 
 150   22:15    82.5     5    1.6   205     2.6    0.00 
 150   22:20    82.4     6    1.4   180     2.9    0.00 
 150   22:25    82.5     6    1.4   190     4.4    0.00 
 150   22:30    82.9     7    2.1   193     4.8    0.00 
 150   22:35    82.9     7    1.8   177     3.5    0.00 
 150   22:40    83.0     8    3.1   161     5.3    0.00 
 150   22:45    82.7     9    3.7   161     6.3    0.00 
 150   22:50    81.8     9    4.0   134     7.2    0.00 
 150   22:55    81.0     9    4.5   145     8.2    0.00 
 150   23:00    81.9     9    4.5   145     8.0    0.00 
 150   23:05    81.5     9    3.7   146     4.9    0.00 
 150   23:10    81.2    10    4.6   145     6.0    0.00 
 150   23:15    81.5    10    4.7   145     6.8    0.00 
 150   23:20    81.4    10    3.9   137     5.0    0.00 
 150   23:25    80.5    10    4.2   146     6.1    0.00 
 150   23:30    80.0    10    4.3   158     5.9    0.00 
 150   23:35    80.6    11    5.4   159     8.1    0.00 
 150   23:40    80.8    11    4.5   158     6.0    0.00 
 150   23:45    79.2    10    3.5   160     5.2    0.00 
 150   23:50    77.3    10    2.8   170     4.9    0.00 
 150   23:55    76.6    11    2.7   176     4.3    0.00 
 151    0:00    76.7    12    3.6   184     7.8    0.00 
 151    0:05    78.8    14    5.4   180     7.8    0.00 
 151    0:10    79.8    14    6.3   179     9.7    0.00 
 151    0:15    79.9    15    6.2   181     9.1    0.00 
 151    0:20    80.1    16    6.4   185     9.8    0.00 
 151    0:25    79.7    16    5.3   193     8.6    0.00 
 151    0:30    79.5    16    5.7   205     9.7    0.00 
 151    0:35    79.5    16    5.4   219     8.0    0.00 
 151    0:40    79.2    17    5.8   208     8.9    0.00 
 151    0:45    79.1    17    5.8   217     8.6    0.00 
 151    0:50    79.0    17    4.2   228     7.1    0.00 
 151    0:55    78.5    16    3.8   230     6.2    0.00 
 151    1:00    78.9    16    5.0   214     8.1    0.00 
 151    1:05    79.1    16    4.4   216     7.6    0.00 
 151    1:10    78.7    18    3.8   226     6.5    0.00 
 151    1:15    78.5    19    4.1   220     6.4    0.00 
 151    1:20    78.5    18    3.2   201     6.0    0.00 
 151    1:25    75.9    18    2.1   139     3.5    0.00 
 151    1:30    73.1    20    4.0   156     5.9    0.00 
 151    1:35    73.1    20    3.9   165     5.8    0.00 
 151    1:40    73.3    20    3.7   168     5.4    0.00 
 151    1:45    73.5    20    2.9   186     4.9    0.00 
 151    1:50    74.0    21    1.7   176     2.3    0.00 
 151    1:55    74.6    21    1.4   158     3.0    0.00 
 151    2:00    73.0    19    2.0    19     3.1    0.00 
 151    2:05    71.4    19    2.7   167     5.0    0.00 
 151    2:10    71.0    19    3.5   154     5.6    0.00 
 151    2:15    70.7    19    2.8   149     4.7    0.00 
 151    2:20    70.7    18    3.9   155     5.8    0.00 
 151    2:25    70.5    18    2.7   189     4.7    0.00 
 151    2:30    70.5    18    2.7   204     3.9    0.00 
 151    2:35    70.7    18    2.4   176     3.5    0.00 
 151    2:40    70.1    18    1.5   170     3.4    0.00 
 151    2:45    69.7    18    1.4   171     2.6    0.00 
 151    2:50    69.9    17    3.7   163     5.8    0.00 
 151    2:55    70.0    17    4.2   182     5.9    0.00 
 151    3:00    69.7    16    3.1   182     4.6    0.00 
 151    3:05    69.7    16    3.2   191     5.0    0.00 
 151    3:10    71.0    16    4.7   170     6.6    0.00 
 151    3:15    71.6    17    1.9   208     4.2    0.00 
 151    3:20    69.8    19    2.0   170     2.8    0.00 
 151    3:25    70.3    18    2.6   170     4.4    0.00 
 151    3:30    69.9    18    4.4   169     5.5    0.00 
 151    3:35    69.8    18    4.7   153     6.0    0.00 
 151    3:40    69.4    18    3.7   148     5.2    0.00 
 151    3:45    69.0    20    3.5   177     4.7    0.00 
 151    3:50    69.9    21    3.4   175     5.1    0.00 
 151    3:55    70.3    23    4.2   178     5.4    0.00 
 151    4:00    70.4    24    4.9   175     6.8    0.00 
 151    4:05    70.0    24    4.3   168     6.0    0.00 
 151    4:10    69.8    24    4.4   164     6.1    0.00 
 151    4:15    69.6    24    4.4   172     6.5    0.00 
 151    4:20    69.2    24    4.5   165     6.4    0.00 
 151    4:25    69.0    25    4.5   170     6.4    0.00 
 151    4:30    69.1    25    4.5   184     6.8    0.00 
 151    4:35    69.1    26    4.0   186     5.7    0.00 
 151    4:40    69.2    26    3.5   195     4.8    0.00 
 151    4:45    69.4    26    2.7   197     4.9    0.00 
 151    4:50    69.7    25    3.9   208     5.7    0.00 
 151    4:55    70.2    25    2.9   215     5.3    0.00 
 151    5:00    69.5    25    2.6   212     3.9    0.00 
 151    5:05    69.0    26    3.4   184     5.2    0.00 
 151    5:10    69.0    27    4.5   168     6.1    0.00 
 151    5:15    68.7    27    5.1   170     7.2    0.00 
 151    5:20    68.3    28    5.6   174     8.3    0.00 
 151    5:25    67.8    29    5.0   180     7.4    0.00 
 151    5:30    67.8    30    4.1   182     6.8    0.00 
 151    5:35    68.0    29    4.4   176     6.8    0.00 
 151    5:40    68.0    30    3.8   173     6.1    0.00 
 151    5:45    68.6    30    4.5   182     6.4    0.00 
 151    5:50    69.4    29    4.4   185     7.9    0.00 
 151    5:55    70.0    30    4.7   186     7.0    0.00 
 151    6:00    70.3    30    4.0   185     6.9    0.00 
 151    6:05    70.8    30    3.6   192     6.7    0.00 
 151    6:10    71.3    30    3.5   183     5.5    0.00 
 151    6:15    71.5    29    3.4   164     4.7    0.00 
 151    6:20    71.9    28    1.7   176     3.2    0.00 
 151    6:25    72.5    28    2.9   179     5.6    0.00 
 151    6:30    72.8    28    3.4   161     5.4    0.00 
 151    6:35    73.2    27    4.6   165     7.4    0.00 
 151    6:40    73.1    27    4.3   156     6.2    0.00 
 151    6:45    72.9    26    3.9   156     5.8    0.00 
 151    6:50    73.8    25    1.9   133     3.6    0.00 
 151    6:55    74.2    24    2.6   145     4.1    0.00 
 151    7:00    74.3    25    3.0   158     5.1    0.00 
 151    7:05    75.3    23    2.9   144     4.0    0.00 
 151    7:10    75.9    22    3.5   149     5.0    0.00 
 151    7:15    75.8    22    3.5   148     5.4    0.00 
 151    7:20    76.3    22    3.5   159     5.4    0.00 
 151    7:25    76.7    21    4.0   151     5.3    0.00 
 151    7:30    77.3    20    3.4   154     4.6    0.00 
 151    7:35    78.4    20    3.0   153     4.9    0.00 
 151    7:40    79.1    19    2.8   147     4.1    0.00 
 151    7:45    79.4    18    2.9   147     4.5    0.00 
 151    7:50    80.4    18    2.6   144     4.1    0.00 
 151    7:55    81.5    17    2.7   137     4.4    0.00 
 151    8:00    81.9    17    2.5   124     4.1    0.00 
 151    8:05    82.2    17    3.3   116     5.0    0.00 
 151    8:10    82.7    16    3.2   119     5.7    0.00 
 151    8:15    83.6    16    3.7   119     5.7    0.00 
 151    8:20    83.7    15    4.6   121     7.1    0.00 
 151    8:25    84.0    15    4.3   121     6.3    0.00 
 151    8:30    84.6    15    4.2   128     6.5    0.00 
 151    8:35    84.8    14    4.3   128     6.8    0.00 
 151    8:40    85.4    13    3.7   138     7.7    0.00 
 151    8:45    86.3    13    3.2   130     5.5    0.00 
 151    8:50    86.6    12    3.5   101     5.6    0.00 
 151    8:55    86.9    12    2.6   126     4.6    0.00 
 151    9:00    88.0    11    2.5   101     5.0    0.00 
 151    9:05    87.8    11    2.6   120     4.8    0.00 
 151    9:10    88.1    11    2.7   102     5.7    0.00 
 151    9:15    88.8    10    2.1   138     3.1    0.00 
 151    9:20    88.4    10    2.3   195     4.4    0.00 
 151    9:25    89.9    10    1.7    26     3.0    0.00 
 151    9:30    90.2     9    2.3   328     3.3    0.00 
 151    9:35    90.7     9    1.6   314     3.3    0.00 
 151    9:40    91.1     9    1.8   324     4.1    0.00 
 151    9:45    92.6     9    2.3     8     4.7    0.00 
 151    9:50    93.8     9    2.6    11     4.4    0.00 
 151    9:55    93.7     9    2.2   172     5.0    0.00 
 151   10:00    92.6    10    4.0   192     6.9    0.00 
 151   10:05    91.8    10    5.0   184     7.9    0.00 
 151   10:10    91.9    10    3.8   154     7.4    0.00 
 151   10:15    91.2    10    4.5   152     8.9    0.00 
 151   10:20    91.5    10    2.9   178     7.5    0.00 
 151   10:25    93.3     9    2.3   113     5.9    0.00 
 151   10:30    93.2     8    3.1   115     6.3    0.00 
 151   10:35    94.0     8    2.7    40     5.2    0.00 
 151   10:40    95.6     8    1.7    19     4.9    0.00 
 151   10:45    95.3     8    2.4   300     5.6    0.00 
 151   10:50    92.8     9    3.5    36     6.9    0.00 
 151   10:55    94.2     8    5.9    76    11.1    0.00 
 151   11:00    94.6     7    9.2   160    13.9    0.00 
 151   11:05    93.3     9    4.9   325    12.8    0.00 
 151   11:10    94.3     8    4.9   295     9.0    0.00 
 151   11:15    93.9     8    6.1   302    11.6    0.00 
 151   11:20    94.1     8    5.3   313     8.7    0.00 
 151   11:25    94.3     8    4.2   339     7.7    0.00 
 151   11:30    95.0     7    3.8   339     6.8    0.00 
 151   11:35    95.6     7    2.2    71     5.2    0.00 
 151   11:40    95.2     8    3.2   293     5.8    0.00 
 151   11:45    95.2     7    4.2   252    10.1    0.00 
 151   11:50    95.2     7    5.8   281    10.3    0.00 
 151   11:55    94.6     8    4.2   267     7.7    0.00 
 151   12:00    95.0     7    4.3   268     7.7    0.00 
 151   12:05    95.3     7    2.2   275     4.9    0.00 
 151   12:10    96.0     7    4.6   296     8.4    0.00 
 151   12:15    95.5     7    5.7   274    12.2    0.00 
 151   12:20    94.8     7    4.2   276     9.5    0.00 
 151   12:25    95.4     7    4.1   252     7.7    0.00 

Return to Lower Well graphs page.


Western Regional Climate Center,wrcc@dri.edu